createdAt,value
2022-08-26T00:00:00.153Z,26.2
2022-08-26T00:05:00.087Z,26.2
2022-08-26T00:10:00.135Z,26.3
2022-08-26T00:15:00.100Z,26.2
2022-08-26T00:20:00.373Z,26.2
2022-08-26T00:25:00.101Z,26.3
2022-08-26T00:30:00.155Z,26.3
2022-08-26T00:35:00.097Z,26.3
2022-08-26T00:40:00.663Z,26.3
2022-08-26T00:45:00.119Z,26.3
2022-08-26T00:50:01.505Z,26.3
2022-08-26T00:55:00.109Z,26.4
2022-08-26T01:00:00.155Z,26.4
2022-08-26T01:05:00.092Z,26.4
2022-08-26T01:10:00.120Z,26.4
2022-08-26T01:15:00.117Z,26.4
2022-08-26T01:20:00.108Z,26.4
2022-08-26T01:25:00.097Z,26.4
2022-08-26T01:30:00.121Z,26.3
2022-08-26T01:35:00.081Z,26.3
2022-08-26T01:40:00.200Z,26.4
2022-08-26T01:45:00.100Z,26.4
2022-08-26T01:50:00.103Z,26.4
2022-08-26T01:55:00.099Z,26.4
2022-08-26T02:00:01.910Z,26.5
2022-08-26T02:05:00.204Z,26.4
2022-08-26T02:10:00.115Z,26.3
2022-08-26T02:15:00.090Z,26.3
2022-08-26T02:20:00.135Z,26.3
2022-08-26T02:25:00.076Z,26.2
2022-08-26T02:30:00.098Z,26.1
2022-08-26T02:35:00.071Z,26.0
2022-08-26T02:40:00.216Z,26.0
2022-08-26T02:45:00.129Z,26.0
2022-08-26T02:50:00.097Z,25.9
2022-08-26T02:55:00.106Z,25.9
2022-08-26T03:00:00.101Z,25.8
2022-08-26T03:05:01.680Z,25.8
2022-08-26T03:10:06.983Z,25.7
2022-08-26T03:15:00.093Z,25.7
2022-08-26T03:20:00.113Z,25.7
2022-08-26T03:25:00.092Z,25.6
2022-08-26T03:30:00.171Z,25.6
2022-08-26T03:35:00.082Z,25.5
2022-08-26T03:40:00.313Z,25.5
2022-08-26T03:45:00.082Z,25.5
2022-08-26T03:50:00.118Z,25.5
2022-08-26T03:55:00.098Z,25.5
2022-08-26T04:00:00.101Z,25.5
2022-08-26T04:05:00.094Z,25.5
2022-08-26T04:10:00.157Z,25.4
2022-08-26T04:15:00.090Z,25.3
2022-08-26T04:20:00.106Z,25.3
2022-08-26T04:25:00.091Z,25.3
2022-08-26T04:30:00.127Z,25.3
2022-08-26T04:35:00.089Z,25.3
2022-08-26T04:40:00.222Z,25.2
2022-08-26T04:45:00.058Z,25.2
2022-08-26T04:50:00.113Z,25.2
2022-08-26T04:55:00.108Z,25.2
2022-08-26T05:00:00.097Z,25.2
2022-08-26T05:05:00.090Z,25.2
2022-08-26T05:10:00.159Z,25.2
2022-08-26T05:15:00.093Z,25.2
2022-08-26T05:20:00.132Z,25.2
2022-08-26T05:25:00.099Z,25.2
2022-08-26T05:30:00.140Z,25.2
2022-08-26T05:35:00.089Z,25.2
2022-08-26T05:40:01.445Z,25.2
2022-08-26T05:45:00.079Z,25.2
2022-08-26T05:50:00.139Z,25.2
2022-08-26T05:55:00.098Z,25.2
2022-08-26T06:00:00.134Z,25.2
2022-08-26T06:05:00.098Z,25.2
2022-08-26T06:10:21.578Z,25.2
2022-08-26T06:15:00.091Z,25.2
2022-08-26T06:20:00.121Z,25.2
2022-08-26T06:25:00.086Z,25.2
2022-08-26T06:30:00.127Z,25.2
2022-08-26T06:35:00.089Z,25.2
2022-08-26T06:40:00.199Z,25.3
2022-08-26T06:45:00.090Z,25.3
2022-08-26T06:50:00.355Z,25.3
2022-08-26T06:55:00.084Z,25.3
2022-08-26T07:00:01.021Z,25.4
2022-08-26T07:05:00.059Z,25.3
2022-08-26T07:10:00.112Z,25.4
2022-08-26T07:15:00.115Z,25.4
2022-08-26T07:20:00.112Z,25.4
2022-08-26T07:25:00.083Z,25.4
2022-08-26T07:30:00.130Z,25.5
2022-08-26T07:35:00.075Z,25.5
2022-08-26T07:40:01.304Z,25.5
2022-08-26T07:45:00.094Z,25.5
2022-08-26T07:50:00.127Z,25.5
2022-08-26T07:55:00.995Z,25.5
2022-08-26T08:00:00.109Z,25.5
2022-08-26T08:05:00.147Z,25.5
2022-08-26T08:10:00.127Z,25.6
2022-08-26T08:15:00.101Z,25.6
2022-08-26T08:20:00.111Z,25.7
2022-08-26T08:25:00.103Z,25.7
2022-08-26T08:30:00.133Z,25.7
2022-08-26T08:35:00.071Z,25.7
2022-08-26T08:40:00.187Z,25.7
2022-08-26T08:45:00.109Z,25.7
2022-08-26T08:50:00.142Z,25.8
2022-08-26T08:55:00.097Z,25.8
2022-08-26T09:00:00.124Z,25.8
2022-08-26T09:05:00.098Z,25.8
2022-08-26T09:10:00.136Z,25.8
2022-08-26T09:15:00.100Z,25.9
2022-08-26T09:20:00.113Z,25.9
2022-08-26T09:25:00.099Z,25.9
2022-08-26T09:30:01.005Z,25.9
2022-08-26T09:35:00.098Z,25.9
2022-08-26T09:40:00.172Z,25.9
2022-08-26T09:45:00.088Z,26.0
2022-08-26T09:50:00.131Z,25.9
2022-08-26T09:55:00.081Z,26.0
2022-08-26T10:00:00.170Z,26.0
2022-08-26T10:05:09.051Z,26.0
2022-08-26T10:10:00.126Z,26.0
2022-08-26T10:15:00.183Z,26.0
2022-08-26T10:20:00.115Z,26.0
2022-08-26T10:25:00.126Z,26.0
2022-08-26T10:30:00.413Z,26.0
2022-08-26T10:35:00.102Z,26.0
2022-08-26T10:40:00.200Z,26.0
2022-08-26T10:45:00.094Z,26.0
2022-08-26T10:50:03.100Z,26.1
2022-08-26T10:55:00.094Z,26.1
2022-08-26T11:00:00.141Z,26.1
2022-08-26T11:05:00.088Z,26.1
2022-08-26T11:10:00.132Z,26.2
2022-08-26T11:15:00.106Z,26.1
2022-08-26T11:20:02.094Z,26.2
2022-08-26T11:25:00.111Z,26.2
2022-08-26T11:30:00.429Z,26.2
2022-08-26T11:35:00.413Z,26.2
2022-08-26T11:40:00.188Z,26.2
2022-08-26T11:45:02.459Z,26.2
2022-08-26T11:50:00.125Z,26.3
2022-08-26T11:55:00.122Z,26.3
2022-08-26T12:00:00.153Z,26.3
2022-08-26T12:05:00.079Z,26.3
2022-08-26T12:10:02.165Z,26.3
2022-08-26T12:15:00.110Z,26.3
2022-08-26T12:20:00.120Z,26.2
2022-08-26T12:25:00.104Z,26.2
2022-08-26T12:30:00.119Z,26.2
2022-08-26T12:35:00.163Z,26.1
2022-08-26T12:40:00.188Z,26.1
2022-08-26T12:45:00.097Z,26.1
2022-08-26T12:50:01.215Z,26.0
2022-08-26T12:55:00.109Z,26.0
2022-08-26T13:00:00.112Z,26.0
2022-08-26T13:05:00.959Z,26.0
2022-08-26T13:10:00.105Z,25.9
2022-08-26T13:15:00.095Z,25.8
2022-08-26T13:20:03.730Z,25.8
2022-08-26T13:25:00.099Z,25.7
2022-08-26T13:30:00.993Z,25.7
2022-08-26T13:35:00.076Z,25.7
2022-08-26T13:40:00.277Z,25.7
2022-08-26T13:45:00.113Z,25.7
2022-08-26T13:50:01.477Z,25.8
2022-08-26T13:55:00.233Z,25.8
2022-08-26T14:00:00.181Z,25.8
2022-08-26T14:05:00.085Z,25.8
2022-08-26T14:10:00.135Z,25.8
2022-08-26T14:15:00.118Z,25.9
2022-08-26T14:20:00.117Z,25.9
2022-08-26T14:25:00.099Z,25.9
2022-08-26T14:30:00.105Z,25.9
2022-08-26T14:35:00.078Z,25.9
2022-08-26T14:40:00.195Z,26.0
2022-08-26T14:45:00.100Z,25.9
2022-08-26T14:50:00.135Z,25.9
2022-08-26T14:55:00.120Z,26.0
2022-08-26T15:00:00.096Z,26.0
2022-08-26T15:05:00.103Z,26.0
2022-08-26T15:10:00.155Z,26.0
2022-08-26T15:15:00.070Z,26.0
2022-08-26T15:20:00.125Z,26.0
2022-08-26T15:25:00.082Z,26.0
2022-08-26T15:30:00.100Z,26.0
2022-08-26T15:35:00.103Z,26.0
2022-08-26T15:40:00.203Z,26.0
2022-08-26T15:45:00.108Z,26.0
2022-08-26T15:50:00.128Z,26.1
2022-08-26T15:55:00.168Z,26.1
2022-08-26T16:00:00.097Z,26.1
2022-08-26T16:05:00.111Z,26.1
2022-08-26T16:10:00.107Z,26.1
2022-08-26T16:15:00.073Z,26.1
2022-08-26T16:20:00.125Z,26.1
2022-08-26T16:25:01.121Z,26.1
2022-08-26T16:30:00.161Z,26.1
2022-08-26T16:35:01.483Z,26.1
2022-08-26T16:40:00.309Z,26.0
2022-08-26T16:45:00.091Z,26.0
2022-08-26T16:50:00.214Z,26.0
2022-08-26T16:55:01.069Z,26.0
2022-08-26T17:00:00.145Z,26.0
2022-08-26T17:05:00.123Z,26.0
2022-08-26T17:10:00.185Z,26.0
2022-08-26T17:15:00.097Z,25.9
2022-08-26T17:20:00.149Z,25.9
2022-08-26T17:25:00.139Z,25.9
2022-08-26T17:30:00.127Z,25.9
2022-08-26T17:35:00.188Z,25.9
2022-08-26T17:40:00.189Z,25.8
2022-08-26T17:45:00.117Z,25.8
2022-08-26T17:50:00.146Z,25.8
2022-08-26T17:55:00.076Z,25.8
2022-08-26T18:00:00.093Z,25.7
2022-08-26T18:05:00.116Z,25.7
2022-08-26T18:10:00.152Z,25.8
2022-08-26T18:15:00.128Z,25.7
2022-08-26T18:20:00.135Z,25.7
2022-08-26T18:25:00.129Z,25.7
2022-08-26T18:30:00.159Z,25.7
2022-08-26T18:35:00.125Z,25.7
2022-08-26T18:40:00.232Z,25.7
2022-08-26T18:45:00.106Z,25.7
2022-08-26T18:50:00.163Z,25.7
2022-08-26T18:55:00.133Z,25.7
2022-08-26T19:00:00.125Z,25.7
2022-08-26T19:05:00.139Z,25.7
2022-08-26T19:10:00.152Z,25.7
2022-08-26T19:15:00.126Z,25.7
2022-08-26T19:20:01.919Z,25.7
2022-08-26T19:25:00.115Z,25.6
2022-08-26T19:30:00.187Z,25.6
2022-08-26T19:35:00.106Z,25.6
2022-08-26T19:40:00.383Z,25.6
2022-08-26T19:45:00.106Z,25.6
2022-08-26T19:50:00.111Z,25.5
2022-08-26T19:55:00.116Z,25.5
2022-08-26T20:00:00.117Z,25.5
2022-08-26T20:05:01.893Z,25.5
2022-08-26T20:10:01.853Z,25.5
2022-08-26T20:15:00.102Z,25.5
2022-08-26T20:20:00.177Z,25.5
2022-08-26T20:25:00.125Z,25.5
2022-08-26T20:30:01.891Z,25.5
2022-08-26T20:35:00.108Z,25.5
2022-08-26T20:40:00.247Z,25.5
2022-08-26T20:45:00.114Z,25.5
2022-08-26T20:50:01.608Z,25.5
2022-08-26T20:55:00.133Z,25.5
2022-08-26T21:00:00.144Z,25.5
2022-08-26T21:05:00.184Z,25.5
2022-08-26T21:10:00.148Z,25.5
2022-08-26T21:15:00.118Z,25.5
2022-08-26T21:20:00.129Z,25.5
2022-08-26T21:25:00.116Z,25.5
2022-08-26T21:30:00.125Z,25.5
2022-08-26T21:35:00.103Z,25.5
2022-08-26T21:40:00.204Z,25.5
2022-08-26T21:45:00.103Z,25.5
2022-08-26T21:50:00.145Z,25.5
2022-08-26T21:55:00.114Z,25.5
2022-08-26T22:00:00.120Z,25.5
2022-08-26T22:05:00.088Z,25.5
2022-08-26T22:10:00.120Z,25.5
2022-08-26T22:15:00.098Z,25.5
2022-08-26T22:20:00.116Z,25.5
2022-08-26T22:25:00.116Z,25.5
2022-08-26T22:30:00.140Z,25.5
2022-08-26T22:35:00.082Z,25.5
2022-08-26T22:40:00.195Z,25.5
2022-08-26T22:45:00.095Z,25.5
2022-08-26T22:50:00.104Z,25.5
2022-08-26T22:55:00.109Z,25.5
2022-08-26T23:00:00.128Z,25.5
2022-08-26T23:05:00.111Z,25.5
2022-08-26T23:10:00.126Z,25.5
2022-08-26T23:15:00.078Z,25.5
2022-08-26T23:20:00.097Z,25.5
2022-08-26T23:25:01.054Z,25.5
2022-08-26T23:30:00.124Z,25.5
2022-08-26T23:35:00.088Z,25.4
2022-08-26T23:40:00.200Z,25.4
2022-08-26T23:45:00.099Z,25.3
2022-08-26T23:50:00.101Z,25.3
2022-08-26T23:55:00.111Z,25.3
